ROMMA est une association bénévole à but non lucratif. Votre soutien est indispensable : ADHERER à ROMMA ou FAIRE un DON

La Beaume - (05, Hautes Alpes)

Buëch (820 m)   Longitude: 5° 40' 9'' E   Latitude: 44° 32' 3'' N Station partenaire n°75
 

Détail journalier du     <<     >>

Température Precipitation Humidité Pression Vent Dir Rafale Dir. rafale Ensol.
Heure (°C) (mm) (%) (hPa) (km/h) (km/h) (min)
01:00 9.509310231NNO3NNO0
02:00 9.3093102305NNO0
03:00 9.6094102305O0
04:00 9.109310222OSO5OSO0
05:00 9.309510222OSO6OSO0
06:00 8.809610221OSO5OSO0
07:00 9.609610212OSO5OSO0
08:00 7.90.29510221OSO5OSO0
09:00 9.009510222OSO5OSO0
10:00 12.309610222ENE8E30
11:00 15.108410222NE8E60
12:00 18.606810223N11NE60
13:00 20.3058102111SE29S60
14:00 21.3053102014SSE27S60
15:00 22.2051102014SSE27SE60
16:00 22.0050101915S26S60
17:00 21.7049101914S29S60
18:00 20.2053101910S18SSO30
19:00 18.606310199S19SE0
20:00 15.607210193SO13SSE0
21:00 14.607910194SO8O0
22:00 13.208410202SO6SO0
23:00 12.708810202SE6SO0
minuit 11.809110201SSO3SE0

Graphique du 13-10-2019

 

Serveur OMMA